SPHI/CIX METAR and TAF weather

Enter ICAO airport designator
Station Type Date Time Source
SPHI METAR 2019/02/20 07:00 UTC NOAA

SPHI 200700Z 05003KT 9999 SCT009 OVC060 25/23 Q1011 RMK PP000


Station Type Date Time Source
SPHI Decoded METAR 2019/02/20 07:00 UTC NOAA

Chiclayo, Peru (SPHI) 06-47S 079-50W 34M
Feb 20, 2019 - 02:00 AM EST / 2019.02.20 0700 UTC
Wind: from the NE (050 degrees) at 3 MPH (3 KT):0
Visibility: greater than 7 mile(s):0
Sky conditions: overcast
Temperature: 77 F (25 C)
Dew Point: 73 F (23 C)
Relative Humidity: 88%
Pressure (altimeter): 29.85 in. Hg (1011 hPa)
ob: SPHI 200700Z 05003KT 9999 SCT009 OVC060 25/23 Q1011 RMK PP000
cycle: 7

Station Type Date Time Source
SPHI TAF 2019/02/20 07:35 UTC NOAA

TAF
AMD SPHI 200720Z 2007/2106 VRB05KT 9999 SCT040 BKN080 TX30/2019Z TN23/2011Z
BECMG 2007/2008 05005KT SCT008 OVC060
TEMPO 2010/2013 RA BKN020 BKN080
FM201800 24007KT 9999 BKN050
FM210200 15005KT 9999 SCT050


Example: see airport list